createdAt,value
2022-08-24T00:00:52.167Z,98650.22
2022-08-24T00:01:56.998Z,98644.69
2022-08-24T00:03:00.850Z,98646.34
2022-08-24T00:04:05.992Z,98649.63
2022-08-24T00:05:14.542Z,98644.31
2022-08-24T00:06:22.152Z,98656.75
2022-08-24T00:07:59.523Z,98648.81
2022-08-24T00:08:57.057Z,98651.84
2022-08-24T00:10:00.932Z,98646.94
2022-08-24T00:11:06.257Z,98645.31
2022-08-24T00:12:10.178Z,98652.47
2022-08-24T00:13:17.836Z,98654.09
2022-08-24T00:14:23.025Z,98653.88
2022-08-24T00:15:30.560Z,98651.22
2022-08-24T00:16:35.821Z,98649.38
2022-08-24T00:17:41.080Z,98655.72
2022-08-24T00:18:44.845Z,98653.06
2022-08-24T00:19:49.822Z,98648.78
2022-08-24T00:20:54.360Z,98648.56
2022-08-24T00:22:00.482Z,98647.75
2022-08-24T00:23:05.446Z,98643.66
2022-08-24T00:24:13.718Z,98650.78
2022-08-24T00:27:13.310Z,98643.63
2022-08-24T00:28:26.412Z,98646.47
2022-08-24T00:32:46.401Z,98646.47
2022-08-24T00:33:26.843Z,98643.94
2022-08-24T00:34:32.076Z,98646.97
2022-08-24T00:35:36.789Z,98645.75
2022-08-24T00:36:41.363Z,98635.53
2022-08-24T00:40:48.286Z,98639.72
2022-08-24T00:41:54.716Z,98632.75
2022-08-24T00:43:05.002Z,98641.72
2022-08-24T00:44:35.343Z,98648.88
2022-08-24T00:45:49.729Z,98638.25
2022-08-24T00:46:58.735Z,98633.97
2022-08-24T00:48:05.269Z,98635.81
2022-08-24T00:49:26.325Z,98636.44
2022-08-24T00:50:49.458Z,98640.09
2022-08-24T00:52:00.283Z,98638.25
2022-08-24T00:53:11.453Z,98636.84
2022-08-24T00:56:06.389Z,98633.94
2022-08-24T00:57:12.366Z,98628.00
2022-08-24T00:58:39.221Z,98631.66
2022-08-24T00:59:47.653Z,98636.97
2022-08-24T01:00:55.811Z,98636.16
2022-08-24T01:02:01.361Z,98639.63
2022-08-24T01:04:06.028Z,98645.94
2022-08-24T01:05:12.596Z,98649.41
2022-08-24T01:06:17.545Z,98650.44
2022-08-24T01:07:23.366Z,98653.09
2022-08-24T01:08:28.146Z,98667.16
2022-08-24T01:09:31.687Z,98663.69
2022-08-24T01:10:42.084Z,98663.69
2022-08-24T01:11:46.065Z,98663.69
2022-08-24T01:12:59.958Z,98662.88
2022-08-24T01:14:05.226Z,98661.84
2022-08-24T01:15:11.875Z,98659.00
2022-08-24T01:16:38.918Z,98659.81
2022-08-24T01:18:01.714Z,98659.00
2022-08-24T01:19:08.643Z,98653.69
2022-08-24T01:20:13.914Z,98657.16
2022-08-24T01:21:19.762Z,98659.66
2022-08-24T01:22:36.963Z,98657.81
2022-08-24T01:23:43.307Z,98663.72
2022-08-24T01:24:48.498Z,98660.25
2022-08-24T01:25:52.713Z,98659.25
2022-08-24T01:27:03.700Z,98659.03
2022-08-24T01:28:13.796Z,98662.94
2022-08-24T01:29:23.736Z,98664.59
2022-08-24T01:30:30.587Z,98673.19
2022-08-24T01:31:40.666Z,98674.81
2022-08-24T01:32:54.974Z,98671.00
2022-08-24T01:33:59.730Z,98672.44
2022-08-24T01:35:03.565Z,98664.91
2022-08-24T01:36:18.014Z,98667.38
2022-08-24T01:37:23.515Z,98667.16
2022-08-24T01:38:31.120Z,98665.97
2022-08-24T01:39:42.532Z,98665.56
2022-08-24T01:40:54.695Z,98665.38
2022-08-24T01:41:58.786Z,98665.38
2022-08-24T01:43:05.972Z,98662.53
2022-08-24T01:44:34.619Z,98672.94
2022-08-24T01:45:39.172Z,98662.31
2022-08-24T01:46:46.335Z,98670.28
2022-08-24T01:47:50.672Z,98661.50
2022-08-24T01:48:55.800Z,98669.88
2022-08-24T01:49:59.865Z,98657.81
2022-08-24T01:51:06.992Z,98659.63
2022-08-24T01:52:14.204Z,98664.94
2022-08-24T01:53:20.330Z,98662.09
2022-08-24T01:54:24.684Z,98655.75
2022-08-24T01:55:31.642Z,98664.38
2022-08-24T01:56:42.024Z,98656.41
2022-08-24T01:57:47.929Z,98659.88
2022-08-24T01:59:27.893Z,98657.44
2022-08-24T02:00:35.584Z,98662.09
2022-08-24T02:01:42.713Z,98651.69
2022-08-24T02:02:48.116Z,98656.16
2022-08-24T02:04:18.916Z,98657.38
2022-08-24T02:05:25.654Z,98656.53
2022-08-24T02:06:30.656Z,98660.03
2022-08-24T02:07:34.407Z,98656.53
2022-08-24T02:09:09.926Z,98655.72
2022-08-24T02:11:50.543Z,98664.34
2022-08-24T02:12:58.436Z,98663.50
2022-08-24T02:14:03.895Z,98666.13
2022-08-24T02:15:11.974Z,98667.81
2022-08-24T02:16:17.059Z,98668.41
2022-08-24T02:17:22.454Z,98676.38
2022-08-24T02:18:31.994Z,98670.88
2022-08-24T02:19:36.070Z,98667.22
2022-08-24T02:20:42.629Z,98672.31
2022-08-24T02:21:47.343Z,98675.78
2022-08-24T02:22:56.663Z,98673.13
2022-08-24T02:24:26.782Z,98668.03
2022-08-24T02:25:34.433Z,98678.66
2022-08-24T02:28:36.474Z,98674.16
2022-08-24T02:29:40.332Z,98672.53
2022-08-24T02:30:47.914Z,98671.50
2022-08-24T02:31:51.749Z,98672.53
2022-08-24T02:32:56.314Z,98667.41
2022-08-24T02:33:59.967Z,98667.59
2022-08-24T02:35:04.803Z,98670.47
2022-08-24T02:36:25.317Z,98667.16
2022-08-24T02:37:32.156Z,98668.38
2022-08-24T02:38:35.884Z,98663.06
2022-08-24T02:39:43.094Z,98664.09
2022-08-24T02:40:51.106Z,98665.09
2022-08-24T02:41:55.843Z,98670.59
2022-08-24T02:43:01.406Z,98667.13
2022-08-24T02:44:08.870Z,98675.69
2022-08-24T02:45:12.954Z,98669.56
2022-08-24T02:46:20.874Z,98685.31
2022-08-24T02:47:36.366Z,98674.72
2022-08-24T02:48:46.265Z,98681.66
2022-08-24T02:50:02.711Z,98674.50
2022-08-24T02:51:11.173Z,98679.00
2022-08-24T02:52:14.946Z,98673.69
2022-08-24T02:53:21.810Z,98683.47
2022-08-24T02:54:25.194Z,98681.81
2022-08-24T02:55:30.391Z,98683.66
2022-08-24T02:56:34.389Z,98675.91
2022-08-24T02:57:39.066Z,98681.22
2022-08-24T02:58:43.803Z,98680.59
2022-08-24T02:59:49.764Z,98680.59
2022-08-24T03:00:53.143Z,98676.31
2022-08-24T03:01:58.592Z,98679.91
2022-08-24T03:03:14.665Z,98672.38
2022-08-24T03:04:19.944Z,98675.19
2022-08-24T03:05:24.267Z,98668.25
2022-08-24T03:06:29.017Z,98677.22
2022-08-24T03:07:33.278Z,98678.03
2022-08-24T03:08:40.972Z,98679.88
2022-08-24T03:09:50.904Z,98679.88
2022-08-24T03:11:11.115Z,98679.88
2022-08-24T03:12:14.756Z,98689.47
2022-08-24T03:13:19.493Z,98691.09
2022-08-24T03:14:23.730Z,98687.47
2022-08-24T03:15:31.199Z,98687.25
2022-08-24T03:16:35.542Z,98689.91
2022-08-24T03:17:41.140Z,98689.09
2022-08-24T03:18:48.291Z,98685.44
2022-08-24T03:19:54.023Z,98694.19
2022-08-24T03:21:00.194Z,98694.03
2022-08-24T03:22:05.243Z,98696.69
2022-08-24T03:23:10.237Z,98702.00
2022-08-24T03:24:14.561Z,98693.84
2022-08-24T03:25:20.842Z,98702.63
2022-08-24T03:26:24.681Z,98698.34
2022-08-24T03:27:30.534Z,98695.69
2022-08-24T03:28:36.493Z,98698.34
2022-08-24T03:29:40.373Z,98700.19
2022-08-24T03:30:46.876Z,98705.50
2022-08-24T03:31:53.306Z,98702.84
2022-08-24T03:32:58.102Z,98713.44
2022-08-24T03:34:03.665Z,98704.63
2022-08-24T03:35:09.738Z,98705.63
2022-08-24T03:36:14.708Z,98709.09
2022-08-24T03:37:18.763Z,98715.25
2022-08-24T03:38:23.381Z,98710.78
2022-08-24T03:39:28.224Z,98710.78
2022-08-24T03:40:34.618Z,98716.91
2022-08-24T03:41:38.517Z,98712.44
2022-08-24T03:42:43.163Z,98717.72
2022-08-24T03:43:49.384Z,98718.53
2022-08-24T03:44:56.235Z,98717.53
2022-08-24T03:46:03.181Z,98717.31
2022-08-24T03:47:08.824Z,98718.13
2022-08-24T03:48:12.998Z,98718.13
2022-08-24T03:49:19.530Z,98717.16
2022-08-24T03:50:24.291Z,98724.09
2022-08-24T03:51:31.004Z,98716.13
2022-08-24T03:52:35.809Z,98716.94
2022-08-24T03:53:44.551Z,98715.94
2022-08-24T03:54:48.230Z,98717.56
2022-08-24T03:55:53.005Z,98713.06
2022-08-24T03:56:56.644Z,98712.91
2022-08-24T03:58:02.035Z,98713.72
2022-08-24T03:59:06.228Z,98703.09
2022-08-24T04:00:15.763Z,98706.56
2022-08-24T04:01:27.268Z,98709.84
2022-08-24T04:02:33.127Z,98701.88
2022-08-24T04:03:37.819Z,98700.03
2022-08-24T04:04:43.113Z,98699.22
2022-08-24T04:05:47.865Z,98703.72
2022-08-24T04:06:52.975Z,98703.09
2022-08-24T04:07:57.136Z,98693.69
2022-08-24T04:09:01.796Z,98703.47
2022-08-24T04:10:09.457Z,98700.63
2022-08-24T04:11:15.628Z,98694.50
2022-08-24T04:12:23.784Z,98694.50
2022-08-24T04:13:32.157Z,98697.16
2022-08-24T04:14:36.424Z,98693.69
2022-08-24T04:15:53.771Z,98705.13
2022-08-24T04:17:03.314Z,98696.16
2022-08-24T04:18:12.320Z,98700.47
2022-08-24T04:19:18.755Z,98696.78
2022-08-24T04:20:23.856Z,98697.41
2022-08-24T04:21:31.510Z,98702.69
2022-08-24T04:23:05.077Z,98701.88
2022-08-24T04:24:09.623Z,98692.28
2022-08-24T04:25:14.075Z,98693.09
2022-08-24T04:26:25.622Z,98691.28
2022-08-24T04:27:43.147Z,98697.59
2022-08-24T04:28:46.595Z,98700.25
2022-08-24T04:29:51.644Z,98697.59
2022-08-24T04:30:58.428Z,98701.06
2022-08-24T04:32:10.226Z,98699.06
2022-08-24T04:33:14.284Z,98706.00
2022-08-24T04:34:19.949Z,98700.69
2022-08-24T04:35:23.683Z,98708.25
2022-08-24T04:36:28.714Z,98702.75
2022-08-24T04:37:32.287Z,98708.88
2022-08-24T04:38:37.915Z,98708.69
2022-08-24T04:40:21.271Z,98704.19
2022-08-24T04:41:31.901Z,98704.84
2022-08-24T04:43:56.616Z,98709.75
2022-08-24T04:45:01.023Z,98709.53
2022-08-24T04:46:17.971Z,98703.25
2022-08-24T04:47:24.492Z,98703.03
2022-08-24T04:48:28.067Z,98701.19
2022-08-24T04:49:33.792Z,98699.34
2022-08-24T04:50:37.888Z,98692.41
2022-08-24T04:51:42.802Z,98697.53
2022-08-24T04:52:46.051Z,98695.69
2022-08-24T04:53:53.987Z,98693.03
2022-08-24T04:55:00.315Z,98700.00
2022-08-24T04:56:05.744Z,98700.00
2022-08-24T04:57:09.389Z,98695.69
2022-08-24T04:58:14.927Z,98702.66
2022-08-24T04:59:18.054Z,98697.97
2022-08-24T05:00:23.635Z,98699.38
2022-08-24T05:01:28.985Z,98704.31
2022-08-24T05:02:40.780Z,98703.09
2022-08-24T05:03:46.274Z,98691.47
2022-08-24T05:04:50.914Z,98700.06
2022-08-24T05:05:54.253Z,98692.69
2022-08-24T05:06:58.344Z,98690.88
2022-08-24T05:08:01.647Z,98690.69
2022-08-24T05:09:07.017Z,98688.03
2022-08-24T05:10:11.470Z,98686.19
2022-08-24T05:11:17.620Z,98690.47
2022-08-24T05:12:22.431Z,98686.81
2022-08-24T05:13:34.455Z,98689.66
2022-08-24T05:14:39.448Z,98690.47
2022-08-24T05:15:43.927Z,98695.41
2022-08-24T05:16:52.579Z,98690.91
2022-08-24T05:17:58.045Z,98698.47
2022-08-24T05:19:03.173Z,98698.47
2022-08-24T05:20:06.902Z,98696.66
2022-08-24T05:21:13.070Z,98701.75
2022-08-24T05:22:16.432Z,98699.72
2022-08-24T05:23:24.952Z,98702.19
2022-08-24T05:24:28.686Z,98697.69
2022-08-24T05:25:35.110Z,98703.00
2022-08-24T05:26:38.281Z,98695.22
2022-08-24T05:27:42.526Z,98702.19
2022-08-24T05:28:46.052Z,98699.34
2022-08-24T05:29:54.447Z,98706.06
2022-08-24T05:31:07.433Z,98701.41
2022-08-24T05:32:11.676Z,98700.97
2022-08-24T05:33:16.273Z,98707.97
2022-08-24T05:34:20.437Z,98698.16
2022-08-24T05:35:25.120Z,98698.97
2022-08-24T05:36:32.229Z,98697.94
2022-08-24T05:37:36.374Z,98705.69
2022-08-24T05:38:52.335Z,98701.06
2022-08-24T05:39:55.771Z,98707.19
2022-08-24T05:41:01.226Z,98711.28
2022-08-24T05:42:05.949Z,98710.25
2022-08-24T05:43:12.933Z,98716.19
2022-08-24T05:44:17.665Z,98713.13
2022-08-24T05:45:22.718Z,98708.44
2022-08-24T05:46:27.454Z,98710.50
2022-08-24T05:47:32.327Z,98715.41
2022-08-24T05:48:52.544Z,98710.09
2022-08-24T05:50:08.375Z,98712.56
2022-08-24T05:51:13.113Z,98708.91
2022-08-24T05:52:26.375Z,98701.53
2022-08-24T05:53:31.724Z,98710.13
2022-08-24T05:54:35.722Z,98706.47
2022-08-24T05:55:41.361Z,98707.69
2022-08-24T05:56:44.946Z,98706.47
2022-08-24T05:57:50.517Z,98701.97
2022-08-24T05:58:58.292Z,98701.97
2022-08-24T06:00:03.000Z,98700.94
2022-08-24T06:01:08.342Z,98701.56
2022-08-24T06:02:13.465Z,98701.97
2022-08-24T06:03:17.269Z,98696.25
2022-08-24T06:04:29.389Z,98703.84
2022-08-24T06:05:33.117Z,98707.09
2022-08-24T06:06:37.227Z,98704.66
2022-08-24T06:07:40.503Z,98706.50
2022-08-24T06:08:47.092Z,98710.41
2022-08-24T06:09:50.906Z,98711.22
2022-08-24T06:10:55.883Z,98712.84
2022-08-24T06:11:59.782Z,98705.50
2022-08-24T06:13:05.692Z,98706.13
2022-08-24T06:14:13.066Z,98713.50
2022-08-24T06:15:37.276Z,98717.56
2022-08-24T06:16:42.189Z,98717.16
2022-08-24T06:17:46.625Z,98713.13
2022-08-24T06:18:50.047Z,98714.75
2022-08-24T06:19:55.863Z,98722.50
2022-08-24T06:20:59.857Z,98721.91
2022-08-24T06:22:04.428Z,98723.34
2022-08-24T06:23:08.207Z,98729.28
2022-08-24T06:24:17.184Z,98721.91
2022-08-24T06:25:52.201Z,98728.66
2022-08-24T06:27:14.125Z,98725.78
2022-08-24T06:28:18.575Z,98725.41
2022-08-24T06:29:23.904Z,98728.25
2022-08-24T06:30:32.517Z,98729.06
2022-08-24T06:31:52.142Z,98735.00
2022-08-24T06:32:59.695Z,98739.28
2022-08-24T06:34:20.659Z,98741.75
2022-08-24T06:35:26.269Z,98740.50
2022-08-24T06:36:33.461Z,98741.69
2022-08-24T06:37:37.092Z,98743.59
2022-08-24T06:38:45.488Z,98752.38
2022-08-24T06:39:55.145Z,98746.00
2022-08-24T06:41:01.880Z,98746.19
2022-08-24T06:42:06.185Z,98741.47
2022-08-24T06:43:11.364Z,98740.84
2022-08-24T06:44:38.835Z,98743.28
2022-08-24T06:45:58.132Z,98734.88
2022-08-24T06:47:08.104Z,98737.34
2022-08-24T06:48:12.186Z,98735.47
2022-08-24T06:49:16.543Z,98733.78
2022-08-24T06:50:24.632Z,98736.63
2022-08-24T06:51:32.392Z,98736.00
2022-08-24T06:52:38.936Z,98734.34
2022-08-24T06:53:43.987Z,98739.66
2022-08-24T06:54:47.655Z,98743.13
2022-08-24T06:55:54.176Z,98740.41
2022-08-24T06:57:00.288Z,98738.97
2022-08-24T06:58:04.048Z,98738.75
2022-08-24T06:59:08.890Z,98740.41
2022-08-24T07:00:13.760Z,98733.63
2022-08-24T07:01:21.308Z,98741.63
2022-08-24T07:02:26.269Z,98745.56
2022-08-24T07:03:32.321Z,98747.41
2022-08-24T07:04:53.912Z,98742.88
2022-08-24T07:06:15.770Z,98744.94
2022-08-24T07:07:22.187Z,98747.41
2022-08-24T07:08:25.373Z,98750.06
2022-08-24T07:09:32.912Z,98748.41
2022-08-24T07:10:36.169Z,98740.25
2022-08-24T07:11:40.793Z,98744.34
2022-08-24T07:12:44.425Z,98732.25
2022-08-24T07:13:53.424Z,98750.09
2022-08-24T07:14:57.774Z,98741.06
2022-08-24T07:16:03.140Z,98742.69
2022-08-24T07:17:12.055Z,98741.50
2022-08-24T07:18:17.119Z,98743.94
2022-08-24T07:19:25.718Z,98740.03
2022-08-24T07:20:30.873Z,98743.53
2022-08-24T07:22:04.638Z,98735.72
2022-08-24T07:23:11.599Z,98733.91
2022-08-24T07:24:16.373Z,98737.16
2022-08-24T07:25:20.885Z,98724.22
2022-08-24T07:26:27.420Z,98734.25
2022-08-24T07:27:31.353Z,98731.94
2022-08-24T07:28:39.134Z,98735.84
2022-08-24T07:29:52.878Z,98727.59
2022-08-24T07:31:01.528Z,98731.91
2022-08-24T07:32:10.504Z,98729.91
2022-08-24T07:33:17.278Z,98737.28
2022-08-24T07:34:23.397Z,98736.69
2022-08-24T07:35:27.296Z,98732.78
2022-08-24T07:36:32.526Z,98734.22
2022-08-24T07:37:41.348Z,98735.59
2022-08-24T07:38:48.745Z,98731.72
2022-08-24T07:39:52.188Z,98742.97
2022-08-24T07:41:20.306Z,98743.78
2022-08-24T07:42:27.122Z,98749.56
2022-08-24T07:43:36.827Z,98745.88
2022-08-24T07:44:45.085Z,98742.38
2022-08-24T07:45:50.003Z,98746.44
2022-08-24T07:46:54.731Z,98750.31
2022-08-24T07:49:36.127Z,98760.59
2022-08-24T07:50:42.072Z,98760.13
2022-08-24T07:51:46.820Z,98759.53
2022-08-24T07:52:50.624Z,98760.59
2022-08-24T07:53:56.444Z,98766.09
2022-08-24T07:55:06.065Z,98780.94
2022-08-24T07:56:10.440Z,98775.78
2022-08-24T07:57:16.433Z,98781.56
2022-08-24T07:58:20.604Z,98789.97
2022-08-24T07:59:25.307Z,98791.25
2022-08-24T08:00:29.666Z,98790.44
2022-08-24T08:01:38.495Z,98787.75
2022-08-24T08:02:43.682Z,98785.69
2022-08-24T08:03:46.814Z,98784.44
2022-08-24T08:04:56.807Z,98784.00
2022-08-24T08:06:02.648Z,98778.47
2022-08-24T08:07:07.675Z,98786.63
2022-08-24T08:08:12.457Z,98781.88
2022-08-24T08:09:19.585Z,98781.41
2022-08-24T08:10:23.733Z,98783.38
2022-08-24T08:11:29.865Z,98777.97
2022-08-24T08:12:35.262Z,98782.00
2022-08-24T08:14:49.190Z,98777.75
2022-08-24T08:15:56.754Z,98775.84
2022-08-24T08:17:03.001Z,98773.47
2022-08-24T08:18:07.733Z,98779.13
2022-08-24T08:19:13.444Z,98778.84
2022-08-24T08:20:20.453Z,98775.31
2022-08-24T08:21:42.113Z,98780.22
2022-08-24T08:23:03.906Z,98782.88
2022-08-24T08:24:27.242Z,98783.69
2022-08-24T08:25:33.684Z,98784.31
2022-08-24T08:26:40.355Z,98782.44
2022-08-24T08:27:50.908Z,98784.06
2022-08-24T08:28:54.206Z,98786.75
2022-08-24T08:29:58.612Z,98783.50
2022-08-24T08:31:02.709Z,98782.28
2022-08-24T08:32:07.246Z,98783.75
2022-08-24T08:33:10.644Z,98788.50
2022-08-24T08:34:15.307Z,98783.81
2022-08-24T08:35:20.273Z,98784.03
2022-08-24T08:36:23.620Z,98791.44
2022-08-24T08:37:27.981Z,98787.53
2022-08-24T08:38:31.602Z,98789.75
2022-08-24T08:39:37.555Z,98787.88
2022-08-24T08:40:55.791Z,98793.41
2022-08-24T08:42:38.752Z,98790.03
2022-08-24T08:43:48.542Z,98793.28
2022-08-24T08:45:00.615Z,98794.34
2022-08-24T08:46:26.623Z,98794.09
2022-08-24T08:48:33.510Z,98794.47
2022-08-24T08:49:57.402Z,98795.81
2022-08-24T08:51:38.765Z,98801.22
2022-08-24T08:53:06.771Z,98806.50
2022-08-24T08:54:48.974Z,98798.84
2022-08-24T08:56:03.603Z,98804.13
2022-08-24T08:57:19.388Z,98799.47
2022-08-24T08:58:35.832Z,98800.84
2022-08-24T08:59:49.091Z,98794.81
2022-08-24T09:01:05.183Z,98790.19
2022-08-24T09:02:29.242Z,98791.31
2022-08-24T09:04:11.293Z,98795.50
2022-08-24T09:06:22.837Z,98794.34
2022-08-24T09:07:40.780Z,98786.25
2022-08-24T09:09:05.264Z,98793.09
2022-08-24T09:10:18.997Z,98788.13
2022-08-24T09:11:32.733Z,98789.28
2022-08-24T09:12:52.520Z,98783.28
2022-08-24T09:14:17.030Z,98781.88
2022-08-24T09:16:10.227Z,98781.66
2022-08-24T09:17:35.394Z,98790.63
2022-08-24T09:18:52.109Z,98785.53
2022-08-24T09:20:09.661Z,98786.44
2022-08-24T09:21:24.169Z,98784.34
2022-08-24T09:22:29.614Z,98789.25
2022-08-24T09:23:39.930Z,98790.66
2022-08-24T09:25:09.806Z,98784.25
2022-08-24T09:26:27.947Z,98790.97
2022-08-24T09:27:43.191Z,98792.59
2022-08-24T09:28:53.958Z,98795.28
2022-08-24T09:30:07.992Z,98795.88
2022-08-24T09:31:40.308Z,98793.56
2022-08-24T09:32:59.299Z,98792.50
2022-08-24T09:34:14.383Z,98786.34
2022-08-24T09:35:26.580Z,98775.78
2022-08-24T09:36:45.804Z,98779.53
2022-08-24T09:37:59.486Z,98786.91
2022-08-24T09:39:07.245Z,98782.69
2022-08-24T09:40:24.917Z,98784.91
2022-08-24T09:42:08.673Z,98776.03
2022-08-24T09:43:39.704Z,98780.66
2022-08-24T09:45:02.698Z,98774.63
2022-08-24T09:46:42.867Z,98775.69
2022-08-24T09:48:06.271Z,98768.91
2022-08-24T09:49:47.935Z,98769.34
2022-08-24T09:51:19.093Z,98769.41
2022-08-24T09:52:54.152Z,98767.31
2022-08-24T09:54:19.763Z,98755.56
2022-08-24T09:56:06.914Z,98767.88
2022-08-24T09:57:50.425Z,98768.06
2022-08-24T09:59:07.058Z,98778.28
2022-08-24T10:00:14.475Z,98769.91
2022-08-24T10:01:23.664Z,98773.16
2022-08-24T10:02:41.352Z,98771.34
2022-08-24T10:03:56.655Z,98771.31
2022-08-24T10:05:06.566Z,98769.84
2022-08-24T10:06:20.260Z,98778.56
2022-08-24T10:07:28.624Z,98779.25
2022-08-24T10:08:41.863Z,98776.16
2022-08-24T10:10:11.917Z,98770.66
2022-08-24T10:11:21.097Z,98771.31
2022-08-24T10:12:36.058Z,98769.75
2022-08-24T10:13:52.093Z,98772.81
2022-08-24T10:15:01.677Z,98766.94
2022-08-24T10:16:18.994Z,98771.81
2022-08-24T10:17:29.344Z,98769.72
2022-08-24T10:18:43.562Z,98774.59
2022-08-24T10:19:59.223Z,98771.66
2022-08-24T10:21:14.848Z,98767.38
2022-08-24T10:22:25.203Z,98764.69
2022-08-24T10:23:47.643Z,98767.66
2022-08-24T10:25:06.242Z,98760.53
2022-08-24T10:26:14.500Z,98763.13
2022-08-24T10:27:26.503Z,98758.38
2022-08-24T10:28:45.240Z,98763.59
2022-08-24T10:30:11.801Z,98765.59
2022-08-24T10:31:21.155Z,98764.09
2022-08-24T10:32:40.955Z,98762.09
2022-08-24T10:33:57.366Z,98761.63
2022-08-24T10:35:04.792Z,98765.19
2022-08-24T10:36:43.853Z,98768.31
2022-08-24T10:38:36.696Z,98762.28
2022-08-24T10:40:14.904Z,98758.00
2022-08-24T10:42:08.415Z,98765.06
2022-08-24T10:43:37.107Z,98761.97
2022-08-24T10:44:50.521Z,98762.38
2022-08-24T10:46:22.125Z,98760.03
2022-08-24T10:47:28.569Z,98753.91
2022-08-24T10:48:50.453Z,98760.22
2022-08-24T10:50:15.073Z,98758.47
2022-08-24T10:51:31.273Z,98758.53
2022-08-24T10:53:23.946Z,98759.38
2022-08-24T10:54:27.447Z,98768.75
2022-08-24T10:55:33.238Z,98766.81
2022-08-24T10:56:41.816Z,98766.81
2022-08-24T10:57:54.551Z,98770.03
2022-08-24T10:59:09.014Z,98766.00
2022-08-24T11:00:22.724Z,98767.09
2022-08-24T11:01:31.442Z,98766.00
2022-08-24T11:02:37.531Z,98759.81
2022-08-24T11:03:50.694Z,98759.88
2022-08-24T11:04:58.981Z,98754.44
2022-08-24T11:06:15.089Z,98765.13
2022-08-24T11:07:21.031Z,98761.69
2022-08-24T11:08:26.522Z,98751.97
2022-08-24T11:09:45.472Z,98749.09
2022-08-24T11:11:07.077Z,98753.19
2022-08-24T11:12:24.181Z,98746.47
2022-08-24T11:13:27.737Z,98761.31
2022-08-24T11:14:32.247Z,98752.84
2022-08-24T11:15:47.748Z,98757.34
2022-08-24T11:16:57.032Z,98758.19
2022-08-24T11:18:03.012Z,98752.00
2022-08-24T11:19:11.283Z,98758.19
2022-08-24T11:20:28.324Z,98749.75
2022-08-24T11:21:51.216Z,98748.66
2022-08-24T11:23:01.125Z,98755.56
2022-08-24T11:24:07.602Z,98747.97
2022-08-24T11:25:17.314Z,98744.44
2022-08-24T11:26:22.404Z,98748.16
2022-08-24T11:27:32.032Z,98755.41
2022-08-24T11:28:39.173Z,98748.63
2022-08-24T11:30:07.745Z,98743.94
2022-08-24T11:31:16.271Z,98742.47
2022-08-24T11:32:27.733Z,98744.75
2022-08-24T11:33:34.295Z,98745.84
2022-08-24T11:34:39.843Z,98745.59
2022-08-24T11:35:44.168Z,98745.31
2022-08-24T11:36:47.418Z,98735.47
2022-08-24T11:37:54.546Z,98745.38
2022-08-24T11:39:13.051Z,98757.31
2022-08-24T11:40:19.865Z,98750.97
2022-08-24T11:41:28.170Z,98758.25
2022-08-24T11:42:41.371Z,98751.66
2022-08-24T11:43:57.833Z,98759.66
2022-08-24T11:45:06.331Z,98756.13
2022-08-24T11:46:20.096Z,98754.22
2022-08-24T11:47:35.345Z,98756.06
2022-08-24T11:48:47.682Z,98756.09
2022-08-24T11:49:57.003Z,98753.63
2022-08-24T11:51:04.877Z,98748.38
2022-08-24T11:52:12.323Z,98754.50
2022-08-24T11:53:25.159Z,98755.50
2022-08-24T11:54:33.441Z,98759.16
2022-08-24T11:55:47.428Z,98748.22
2022-08-24T11:57:10.812Z,98753.91
2022-08-24T11:58:20.141Z,98752.69
2022-08-24T11:59:27.833Z,98751.44
2022-08-24T12:00:41.865Z,98740.63
2022-08-24T12:01:51.535Z,98753.59
2022-08-24T12:03:00.739Z,98742.28
2022-08-24T12:04:30.153Z,98747.97
2022-08-24T12:05:42.792Z,98743.63
2022-08-24T12:06:55.870Z,98739.25
2022-08-24T12:08:07.647Z,98737.31
2022-08-24T12:09:18.671Z,98747.19
2022-08-24T12:10:32.657Z,98751.81
2022-08-24T12:11:41.158Z,98752.22
2022-08-24T12:12:49.344Z,98750.28
2022-08-24T12:13:58.551Z,98744.31
2022-08-24T12:15:06.643Z,98748.06
2022-08-24T12:16:13.444Z,98743.56
2022-08-24T12:17:26.117Z,98747.16
2022-08-24T12:18:31.668Z,98749.53
2022-08-24T12:19:38.312Z,98754.09
2022-08-24T12:20:43.067Z,98746.28
2022-08-24T12:21:58.003Z,98741.94
2022-08-24T12:23:04.003Z,98748.25
2022-08-24T12:24:15.403Z,98739.56
2022-08-24T12:25:36.991Z,98740.03
2022-08-24T12:26:44.823Z,98746.78
2022-08-24T12:27:48.014Z,98746.19
2022-08-24T12:28:54.772Z,98747.75
2022-08-24T12:30:05.362Z,98747.34
2022-08-24T12:31:13.537Z,98742.31
2022-08-24T12:32:22.063Z,98742.91
2022-08-24T12:33:29.757Z,98737.28
2022-08-24T12:34:42.153Z,98745.72
2022-08-24T12:35:47.551Z,98738.94
2022-08-24T12:37:01.436Z,98737.88
2022-08-24T12:38:10.703Z,98735.91
2022-08-24T12:39:15.468Z,98732.59
2022-08-24T12:40:25.642Z,98740.41
2022-08-24T12:41:33.325Z,98736.22
2022-08-24T12:42:41.729Z,98734.44
2022-08-24T12:43:49.611Z,98741.66
2022-08-24T12:44:57.072Z,98737.69
2022-08-24T12:46:02.109Z,98734.66
2022-08-24T12:47:05.491Z,98729.38
2022-08-24T12:48:16.871Z,98723.31
2022-08-24T12:49:24.764Z,98731.97
2022-08-24T12:50:32.390Z,98735.91
2022-08-24T12:51:46.412Z,98724.75
2022-08-24T12:53:13.351Z,98734.44
2022-08-24T12:54:36.073Z,98733.84
2022-08-24T12:56:18.773Z,98728.16
2022-08-24T12:57:51.884Z,98731.53
2022-08-24T12:59:07.953Z,98724.31
2022-08-24T13:00:17.569Z,98729.56
2022-08-24T13:01:25.627Z,98728.91
2022-08-24T13:02:37.791Z,98729.59
2022-08-24T13:04:17.865Z,98732.97
2022-08-24T13:05:22.391Z,98727.69
2022-08-24T13:06:27.624Z,98735.56
2022-08-24T13:07:34.058Z,98730.91
2022-08-24T13:08:40.542Z,98733.09
2022-08-24T13:09:47.650Z,98734.84
2022-08-24T13:10:54.513Z,98728.78
2022-08-24T13:12:01.071Z,98732.16
2022-08-24T13:13:22.834Z,98733.97
2022-08-24T13:14:28.673Z,98732.00
2022-08-24T13:16:03.048Z,98733.28
2022-08-24T13:17:12.193Z,98731.50
2022-08-24T13:18:48.713Z,98733.53
2022-08-24T13:20:18.014Z,98735.75
2022-08-24T13:21:52.234Z,98733.06
2022-08-24T13:23:16.226Z,98732.28
2022-08-24T13:25:00.274Z,98728.25
2022-08-24T13:26:24.233Z,98737.38
2022-08-24T13:28:12.803Z,98728.19
2022-08-24T13:29:17.140Z,98729.72
2022-08-24T13:30:30.026Z,98716.03
2022-08-24T13:31:37.921Z,98726.63
2022-08-24T13:32:44.834Z,98710.16
2022-08-24T13:33:51.929Z,98707.66
2022-08-24T13:34:57.923Z,98708.53
2022-08-24T13:36:06.722Z,98703.59
2022-08-24T13:37:18.256Z,98703.78
2022-08-24T13:38:56.954Z,98699.88
2022-08-24T13:40:08.645Z,98699.50
2022-08-24T13:41:21.411Z,98691.47
2022-08-24T13:42:38.061Z,98694.38
2022-08-24T13:43:44.792Z,98694.84
2022-08-24T13:45:16.326Z,98701.38
2022-08-24T13:46:25.365Z,98701.28
2022-08-24T13:47:33.324Z,98697.44
2022-08-24T13:48:49.572Z,98693.13
2022-08-24T13:50:08.332Z,98689.41
2022-08-24T13:51:27.243Z,98684.59
2022-08-24T13:52:40.033Z,98691.75
2022-08-24T13:54:00.242Z,98677.09
2022-08-24T13:55:13.936Z,98679.28
2022-08-24T13:56:32.700Z,98678.34
2022-08-24T13:57:41.951Z,98674.53
2022-08-24T13:58:52.601Z,98680.03
2022-08-24T14:00:31.610Z,98673.09
2022-08-24T14:01:38.931Z,98677.97
2022-08-24T14:02:55.344Z,98669.84
2022-08-24T14:04:08.621Z,98676.00
2022-08-24T14:05:26.903Z,98672.63
2022-08-24T14:06:33.541Z,98670.44
2022-08-24T14:07:51.921Z,98678.75
2022-08-24T14:09:02.919Z,98673.31
2022-08-24T14:10:14.453Z,98678.06
2022-08-24T14:11:23.251Z,98678.00